DNAA/ABV METAR and TAF weather

Enter ICAO airport designator
Station Type Date Time Source
DNAA METAR 2021/01/16 01:00 UTC NOAA

DNAA 160100Z 06003KT CAVOK 23/11 Q1010 NOSIG


Station Type Date Time Source
DNAA Decoded METAR 2021/01/16 01:00 UTC NOAA

Station name not available
Jan 15, 2021 - 08:00 PM EST / 2021.01.16 0100 UTC
Wind: from the ENE (060 degrees) at 3 MPH (3 KT):0
Visibility: greater than 7 mile(s):0
Temperature: 73 F (23 C)
Dew Point: 51 F (11 C)
Relative Humidity: 46%
Pressure (altimeter): 29.83 in. Hg (1010 hPa)
ob: DNAA 160100Z 06003KT CAVOK 23/11 Q1010 NOSIG
cycle: 1

Station Type Date Time Source
DNAA TAF 2021/01/15 18:15 UTC NOAA

TAF TAF DNAA 151700Z 1518/1624 25002KT CAVOK
BECMG 1520/1522 06010KT

Example: see airport list